Time;durP1;ratioP1;P1;durP2;ratioP2;P2;SDS_P1;SDS_P2;PMS_P1;PMS_P2;Temp;Humidity;BMP_temperature;BMP_pressure;BME280_temperature;BME280_humidity;BME280_pressure;Samples;Min_cycle;Max_cycle;Signal;HPM_P1;HPM_P2
2023/06/01 00:01:33;;;;;;;15.70;5.73;;;;;;;;;;5050411;28;20049;-61
2023/06/01 00:03:59;;;;;;;19.27;5.50;;;;;;;;;;5050409;28;20091;-61
2023/06/01 00:06:28;;;;;;;19.87;6.77;;;;;;;;;;5049887;28;20047;-61
2023/06/01 00:08:57;;;;;;;12.07;5.83;;;;;;;;;;5050300;28;20037;-61
2023/06/01 00:11:25;;;;;;;13.10;6.03;;;;;;;;;;5050576;28;20041;-61
2023/06/01 00:13:51;;;;;;;12.67;5.70;;;;;;;;;;5050610;28;20080;-61
2023/06/01 00:16:17;;;;;;;17.50;6.00;;;;;;;;;;5050999;28;20075;-61
2023/06/01 00:18:43;;;;;;;10.63;5.63;;;;;;;;;;5050145;28;20496;-60
2023/06/01 00:21:10;;;;;;;12.37;5.17;;;;;;;;;;5050231;28;20045;-60
2023/06/01 00:23:36;;;;;;;16.27;5.70;;;;;;;;;;5050643;28;20051;-60
2023/06/01 00:26:02;;;;;;;15.10;5.27;;;;;;;;;;5050344;28;20052;-61
2023/06/01 00:28:29;;;;;;;11.80;5.13;;;;;;;;;;5050470;28;20093;-61
2023/06/01 00:30:55;;;;;;;15.00;5.97;;;;;;;;;;5050289;28;20122;-61
2023/06/01 00:33:21;;;;;;;20.67;5.90;;;;;;;;;;5049822;28;20641;-61
2023/06/01 00:35:47;;;;;;;12.47;4.93;;;;;;;;;;5050250;28;20469;-60
2023/06/01 00:38:13;;;;;;;12.00;5.73;;;;;;;;;;5049462;28;20098;-61
2023/06/01 00:40:40;;;;;;;16.53;5.80;;;;;;;;;;5050307;28;20419;-61
2023/06/01 00:43:06;;;;;;;14.20;5.87;;;;;;;;;;5050556;28;20140;-61
2023/06/01 00:45:32;;;;;;;13.63;6.00;;;;;;;;;;5049654;28;20041;-61
2023/06/01 00:47:59;;;;;;;11.17;6.33;;;;;;;;;;5049948;28;20060;-61
2023/06/01 00:50:25;;;;;;;11.47;5.50;;;;;;;;;;5050295;28;20115;-60
2023/06/01 00:52:51;;;;;;;13.67;6.87;;;;;;;;;;5049888;28;20438;-61
2023/06/01 00:55:19;;;;;;;14.53;6.40;;;;;;;;;;5050047;28;20041;-61
2023/06/01 00:57:46;;;;;;;15.00;6.43;;;;;;;;;;5049425;28;20127;-60
2023/06/01 01:00:12;;;;;;;14.23;6.00;;;;;;;;;;5049752;28;20037;-60
2023/06/01 01:02:44;;;;;;;13.53;5.90;;;;;;;;;;5049936;28;20106;-61
2023/06/01 01:05:10;;;;;;;15.20;5.73;;;;;;;;;;5049821;28;20140;-60
2023/06/01 01:07:42;;;;;;;13.73;6.20;;;;;;;;;;5049902;28;20209;-60
2023/06/01 01:10:08;;;;;;;15.33;5.57;;;;;;;;;;5049003;28;20049;-61
2023/06/01 01:12:45;;;;;;;17.60;6.40;;;;;;;;;;5048721;28;20400;-60
2023/06/01 01:15:16;;;;;;;15.57;5.40;;;;;;;;;;5049181;28;20041;-61
2023/06/01 01:17:47;;;;;;;12.90;5.63;;;;;;;;;;5048980;28;20407;-61
2023/06/01 01:20:22;;;;;;;16.50;5.90;;;;;;;;;;5048229;28;20458;-62
2023/06/01 01:22:53;;;;;;;16.77;6.57;;;;;;;;;;5048051;28;20049;-61
2023/06/01 01:25:54;;;;;;;16.00;6.17;;;;;;;;;;5049060;28;20049;-61
2023/06/01 01:28:20;;;;;;;12.97;6.30;;;;;;;;;;5006239;28;20140;-61
2023/06/01 01:30:47;;;;;;;13.87;6.50;;;;;;;;;;5040551;28;20083;-61
2023/06/01 01:33:14;;;;;;;12.67;6.17;;;;;;;;;;5048113;28;20059;-61
2023/06/01 01:35:42;;;;;;;17.67;6.70;;;;;;;;;;5048568;28;20056;-61
2023/06/01 01:38:08;;;;;;;15.53;6.53;;;;;;;;;;5048644;28;20052;-61
2023/06/01 01:40:35;;;;;;;11.63;6.03;;;;;;;;;;5048010;28;20148;-61
2023/06/01 01:43:01;;;;;;;16.20;6.73;;;;;;;;;;5048402;28;20056;-61
2023/06/01 01:45:27;;;;;;;14.13;6.17;;;;;;;;;;5048398;28;20052;-61
2023/06/01 01:48:15;;;;;;;17.73;5.93;;;;;;;;;;5047944;28;20067;-61
2023/06/01 01:50:52;;;;;;;16.40;6.73;;;;;;;;;;5047871;28;20049;-61
2023/06/01 01:53:19;;;;;;;15.10;6.70;;;;;;;;;;5048374;28;20057;-61
2023/06/01 01:55:49;;;;;;;13.80;6.47;;;;;;;;;;5048383;28;20521;-61
2023/06/01 01:58:15;;;;;;;15.07;7.57;;;;;;;;;;5047873;28;20514;-61
2023/06/01 02:00:42;;;;;;;14.53;6.60;;;;;;;;;;5048179;28;20151;-61
2023/06/01 02:03:16;;;;;;;14.77;6.80;;;;;;;;;;5048255;28;20045;-61
2023/06/01 02:05:41;;;;;;;;;;;;;;;;;;5048158;28;20045;-61
2023/06/01 02:08:08;;;;;;;16.07;6.17;;;;;;;;;;5048406;28;19921;-61
2023/06/01 02:10:34;;;;;;;14.50;6.13;;;;;;;;;;5048044;28;20044;-61
2023/06/01 02:13:00;;;;;;;16.67;6.97;;;;;;;;;;5048227;28;20045;-61
2023/06/01 02:15:26;;;;;;;12.17;6.70;;;;;;;;;;5048330;28;20048;-61
2023/06/01 02:17:53;;;;;;;15.30;6.40;;;;;;;;;;5047814;28;20052;-61
2023/06/01 02:20:19;;;;;;;12.97;6.33;;;;;;;;;;5047435;28;20131;-61
2023/06/01 02:22:45;;;;;;;14.90;6.63;;;;;;;;;;5047993;28;20095;-61
2023/06/01 02:25:12;;;;;;;17.87;6.73;;;;;;;;;;5048279;28;20045;-61
2023/06/01 02:27:38;;;;;;;15.93;6.53;;;;;;;;;;5047308;28;20434;-61
2023/06/01 02:30:06;;;;;;;16.73;6.07;;;;;;;;;;5048054;28;20415;-61
2023/06/01 02:32:32;;;;;;;16.77;6.17;;;;;;;;;;5047963;28;20060;-61
2023/06/01 02:34:59;;;;;;;19.27;7.33;;;;;;;;;;5047186;28;20091;-61
2023/06/01 02:37:25;;;;;;;22.33;6.80;;;;;;;;;;5047901;28;20049;-61
2023/06/01 02:39:51;;;;;;;10.87;6.13;;;;;;;;;;5047638;28;20056;-61
2023/06/01 02:42:17;;;;;;;13.27;6.07;;;;;;;;;;5047687;28;20060;-61
2023/06/01 02:44:43;;;;;;;13.13;6.00;;;;;;;;;;5047873;28;20057;-61
2023/06/01 02:47:09;;;;;;;16.67;6.60;;;;;;;;;;5047645;28;20041;-61
2023/06/01 02:49:36;;;;;;;19.80;6.30;;;;;;;;;;5046942;28;20052;-61
2023/06/01 02:52:02;;;;;;;14.30;5.77;;;;;;;;;;5047808;28;20526;-61
2023/06/01 02:54:28;;;;;;;11.60;5.10;;;;;;;;;;5047608;28;20047;-61
2023/06/01 02:56:54;;;;;;;17.30;6.73;;;;;;;;;;5047556;28;20519;-61
2023/06/01 02:59:20;;;;;;;17.23;6.70;;;;;;;;;;5047505;28;20057;-61
2023/06/01 03:01:46;;;;;;;15.23;5.93;;;;;;;;;;5050693;28;20045;-61
2023/06/01 03:04:13;;;;;;;14.47;5.43;;;;;;;;;;5051022;28;20052;-61
2023/06/01 03:06:40;;;;;;;14.03;6.17;;;;;;;;;;5051014;28;20059;-61
2023/06/01 03:09:12;;;;;;;15.63;5.90;;;;;;;;;;5051591;28;20045;-61
2023/06/01 03:11:40;;;;;;;15.47;6.43;;;;;;;;;;5050943;28;20128;-61
2023/06/01 03:14:06;;;;;;;11.77;5.77;;;;;;;;;;5051442;28;20052;-61
2023/06/01 03:16:32;;;;;;;12.93;5.90;;;;;;;;;;5051123;28;20052;-61
2023/06/01 03:18:58;;;;;;;17.57;5.93;;;;;;;;;;5051002;28;20049;-61
2023/06/01 03:21:24;;;;;;;10.87;6.40;;;;;;;;;;5051279;28;20053;-60
2023/06/01 03:23:50;;;;;;;10.73;5.57;;;;;;;;;;5050495;28;20063;-61
2023/06/01 03:26:20;;;;;;;20.37;7.40;;;;;;;;;;5050644;28;20041;-60
2023/06/01 03:28:47;;;;;;;12.50;6.00;;;;;;;;;;5050864;28;20091;-61
2023/06/01 03:31:13;;;;;;;16.77;6.83;;;;;;;;;;5050937;28;20045;-61
2023/06/01 03:33:39;;;;;;;14.13;5.83;;;;;;;;;;5050662;28;20041;-60
2023/06/01 03:36:06;;;;;;;11.97;5.50;;;;;;;;;;5050621;28;20140;-61
2023/06/01 03:38:33;;;;;;;14.47;6.27;;;;;;;;;;5050483;28;20455;-61
2023/06/01 03:41:00;;;;;;;14.40;5.70;;;;;;;;;;5050497;28;20250;-61
2023/06/01 03:43:26;;;;;;;13.23;6.10;;;;;;;;;;5050646;28;20420;-61
2023/06/01 03:45:52;;;;;;;12.90;5.90;;;;;;;;;;5050337;28;20090;-60
2023/06/01 03:48:18;;;;;;;15.90;6.00;;;;;;;;;;5049620;28;20045;-61
2023/06/01 03:50:45;;;;;;;14.57;6.57;;;;;;;;;;5050471;28;20045;-61
2023/06/01 03:53:11;;;;;;;13.43;6.50;;;;;;;;;;5050285;28;20048;-61
2023/06/01 03:55:37;;;;;;;17.27;6.77;;;;;;;;;;5049946;28;20471;-61
2023/06/01 03:58:04;;;;;;;14.87;6.47;;;;;;;;;;5050082;28;20545;-61
2023/06/01 04:00:31;;;;;;;16.47;6.23;;;;;;;;;;5049911;28;20060;-61
2023/06/01 04:02:58;;;;;;;11.37;6.87;;;;;;;;;;5049971;28;20048;-61
2023/06/01 04:05:28;;;;;;;16.53;6.60;;;;;;;;;;5050063;28;20102;-60
2023/06/01 04:07:54;;;;;;;10.77;5.53;;;;;;;;;;5050235;28;20088;-61
2023/06/01 04:10:21;;;;;;;11.57;6.30;;;;;;;;;;5049950;28;20056;-61
2023/06/01 04:12:50;;;;;;;11.77;6.33;;;;;;;;;;5048765;28;20041;-61
2023/06/01 04:15:17;;;;;;;19.57;7.13;;;;;;;;;;5050143;28;20512;-60
2023/06/01 04:17:44;;;;;;;11.87;5.80;;;;;;;;;;5049927;28;20399;-61
2023/06/01 04:20:11;;;;;;;13.87;5.97;;;;;;;;;;5050104;28;20057;-61
2023/06/01 04:22:41;;;;;;;14.03;6.13;;;;;;;;;;5049697;28;20049;-61
2023/06/01 04:25:08;;;;;;;16.73;6.10;;;;;;;;;;5049493;28;20049;-61
2023/06/01 04:27:36;;;;;;;16.50;6.33;;;;;;;;;;5049878;28;20384;-61
2023/06/01 04:30:07;;;;;;;14.00;5.10;;;;;;;;;;5049974;28;20059;-61
2023/06/01 04:32:34;;;;;;;11.90;5.27;;;;;;;;;;5049804;28;20067;-61
2023/06/01 04:35:04;;;;;;;12.33;5.27;;;;;;;;;;5048796;28;20215;-61
2023/06/01 04:37:31;;;;;;;12.97;4.87;;;;;;;;;;5049725;28;20040;-61
2023/06/01 04:39:57;;;;;;;8.53;4.07;;;;;;;;;;5049253;28;20396;-61
2023/06/01 04:42:23;;;;;;;12.17;4.47;;;;;;;;;;5048397;28;20048;-61
2023/06/01 04:44:49;;;;;;;9.67;4.23;;;;;;;;;;5049894;28;20057;-61
2023/06/01 04:47:16;;;;;;;9.20;4.17;;;;;;;;;;5049408;28;20052;-61
2023/06/01 04:49:43;;;;;;;13.13;4.10;;;;;;;;;;5048903;28;20044;-61
2023/06/01 04:52:13;;;;;;;13.10;4.53;;;;;;;;;;5049269;28;20145;-61
2023/06/01 04:54:39;;;;;;;11.27;4.83;;;;;;;;;;5048805;28;20400;-61
2023/06/01 04:57:06;;;;;;;10.17;4.37;;;;;;;;;;5048782;28;20049;-61
2023/06/01 04:59:32;;;;;;;14.23;4.27;;;;;;;;;;5049372;28;20044;-61
2023/06/01 05:01:58;;;;;;;10.70;4.60;;;;;;;;;;5049096;28;20067;-61
2023/06/01 05:04:24;;;;;;;9.80;4.43;;;;;;;;;;5049064;28;20514;-61
2023/06/01 05:06:50;;;;;;;10.10;4.67;;;;;;;;;;5048231;28;20048;-61
2023/06/01 05:09:18;;;;;;;15.70;4.83;;;;;;;;;;5048890;28;20495;-61
2023/06/01 05:11:44;;;;;;;9.23;4.17;;;;;;;;;;5048564;28;20092;-61
2023/06/01 05:14:10;;;;;;;12.87;4.73;;;;;;;;;;5048811;28;20106;-61
2023/06/01 05:16:36;;;;;;;11.07;4.43;;;;;;;;;;5048213;28;20053;-61
2023/06/01 05:19:02;;;;;;;10.00;4.77;;;;;;;;;;5048384;28;20048;-61
2023/06/01 05:21:28;;;;;;;11.80;3.77;;;;;;;;;;5048832;28;20095;-61
2023/06/01 05:23:54;;;;;;;11.37;4.53;;;;;;;;;;5048048;28;20044;-61
2023/06/01 05:26:22;;;;;;;10.03;3.83;;;;;;;;;;5048418;28;20053;-61
2023/06/01 05:28:48;;;;;;;8.90;3.70;;;;;;;;;;5048332;28;20076;-61
2023/06/01 05:31:14;;;;;;;9.90;4.33;;;;;;;;;;5048042;28;20404;-61
2023/06/01 05:33:40;;;;;;;8.83;4.40;;;;;;;;;;5048263;28;20429;-61
2023/06/01 05:36:06;;;;;;;11.20;4.27;;;;;;;;;;5048412;28;20049;-61
2023/06/01 05:38:32;;;;;;;11.47;4.17;;;;;;;;;;5048283;28;20053;-61
2023/06/01 05:40:58;;;;;;;13.87;4.47;;;;;;;;;;5048309;28;20056;-61
2023/06/01 05:43:24;;;;;;;8.33;4.60;;;;;;;;;;5048059;28;20502;-61
2023/06/01 05:45:50;;;;;;;10.57;4.13;;;;;;;;;;5047643;28;20115;-61
2023/06/01 05:48:16;;;;;;;8.63;4.30;;;;;;;;;;5048260;28;20041;-61
2023/06/01 05:50:43;;;;;;;12.97;4.23;;;;;;;;;;5047684;28;20136;-61
2023/06/01 05:53:09;;;;;;;14.47;4.80;;;;;;;;;;5048162;28;20061;-61
2023/06/01 05:55:35;;;;;;;13.87;4.57;;;;;;;;;;5048143;28;20044;-61
2023/06/01 05:58:01;;;;;;;11.93;4.70;;;;;;;;;;5047634;28;20065;-61
2023/06/01 06:00:27;;;;;;;13.17;4.10;;;;;;;;;;5047970;28;20079;-61
2023/06/01 06:02:53;;;;;;;11.30;4.17;;;;;;;;;;5047842;28;20041;-61
2023/06/01 06:05:20;;;;;;;16.67;4.60;;;;;;;;;;5048088;28;20052;-61
2023/06/01 06:07:46;;;;;;;12.70;5.20;;;;;;;;;;5047792;28;20136;-61
2023/06/01 06:10:12;;;;;;;8.97;4.20;;;;;;;;;;5047944;28;20044;-61
2023/06/01 06:12:39;;;;;;;10.23;3.87;;;;;;;;;;5047497;28;20092;-61
2023/06/01 06:15:05;;;;;;;12.87;5.23;;;;;;;;;;5047707;28;20045;-61
2023/06/01 06:17:31;;;;;;;7.97;4.30;;;;;;;;;;5047806;28;20040;-61
2023/06/01 06:19:58;;;;;;;10.97;4.50;;;;;;;;;;5047565;28;20114;-61
2023/06/01 06:22:24;;;;;;;11.90;4.23;;;;;;;;;;5047394;28;20574;-61
2023/06/01 06:24:50;;;;;;;9.00;3.73;;;;;;;;;;5033048;28;20052;-61
2023/06/01 06:27:16;;;;;;;11.10;4.50;;;;;;;;;;5027852;28;20602;-61
2023/06/01 06:29:42;;;;;;;12.33;4.47;;;;;;;;;;5031626;28;20045;-61
2023/06/01 06:32:08;;;;;;;11.70;5.43;;;;;;;;;;5028902;28;20483;-61
2023/06/01 06:34:38;;;;;;;12.23;4.47;;;;;;;;;;5032758;28;20049;-61
2023/06/01 06:37:05;;;;;;;8.03;4.13;;;;;;;;;;5031603;28;20049;-61
2023/06/01 06:39:31;;;;;;;13.37;5.03;;;;;;;;;;5031643;28;20053;-61
2023/06/01 06:41:57;;;;;;;7.47;4.27;;;;;;;;;;5031711;28;20060;-61
2023/06/01 06:44:23;;;;;;;11.30;4.67;;;;;;;;;;5030782;28;20079;-61
2023/06/01 06:46:50;;;;;;;9.87;4.43;;;;;;;;;;5031459;28;20079;-61
2023/06/01 06:49:18;;;;;;;15.53;4.20;;;;;;;;;;5031481;28;20046;-61
2023/06/01 06:51:44;;;;;;;8.90;4.30;;;;;;;;;;5031277;28;20511;-61
2023/06/01 06:54:10;;;;;;;11.20;4.13;;;;;;;;;;5031692;28;20132;-61
2023/06/01 06:56:36;;;;;;;10.10;3.43;;;;;;;;;;5031360;28;20049;-61
2023/06/01 06:59:02;;;;;;;14.27;4.37;;;;;;;;;;5030877;28;20554;-61
2023/06/01 07:01:29;;;;;;;12.83;3.93;;;;;;;;;;5031494;28;20041;-61
2023/06/01 07:03:58;;;;;;;13.07;5.30;;;;;;;;;;5031333;28;20176;-61
2023/06/01 07:06:24;;;;;;;9.63;4.20;;;;;;;;;;5031285;28;20045;-61
2023/06/01 07:08:50;;;;;;;7.47;3.73;;;;;;;;;;5031238;28;20065;-61
2023/06/01 07:11:16;;;;;;;9.90;3.83;;;;;;;;;;5030975;28;20046;-61
2023/06/01 07:13:43;;;;;;;11.73;4.33;;;;;;;;;;5030980;28;20065;-61
2023/06/01 07:16:09;;;;;;;8.40;3.43;;;;;;;;;;5030717;28;20420;-61
2023/06/01 07:18:35;;;;;;;9.47;3.80;;;;;;;;;;5030971;28;20052;-61
2023/06/01 07:21:01;;;;;;;7.30;4.47;;;;;;;;;;5030957;28;20053;-61
2023/06/01 07:23:28;;;;;;;11.97;3.90;;;;;;;;;;5030274;28;20049;-61
2023/06/01 07:25:54;;;;;;;10.77;3.80;;;;;;;;;;5030693;28;20074;-61
2023/06/01 07:28:25;;;;;;;6.90;3.40;;;;;;;;;;5031077;28;20045;-61
2023/06/01 07:30:51;;;;;;;9.40;3.37;;;;;;;;;;5031129;28;20132;-61
2023/06/01 07:33:17;;;;;;;9.03;3.77;;;;;;;;;;5031108;28;20057;-61
2023/06/01 07:35:45;;;;;;;9.97;3.93;;;;;;;;;;5030741;28;20050;-61
2023/06/01 07:38:11;;;;;;;10.63;3.70;;;;;;;;;;5031275;28;20055;-61
2023/06/01 07:40:38;;;;;;;8.30;2.83;;;;;;;;;;5031297;28;20519;-61
2023/06/01 07:43:04;;;;;;;9.73;3.80;;;;;;;;;;5031170;28;20044;-61
2023/06/01 07:45:30;;;;;;;10.20;3.23;;;;;;;;;;5030863;28;20053;-61
2023/06/01 07:47:56;;;;;;;8.67;3.73;;;;;;;;;;5031045;28;20054;-61
2023/06/01 07:50:28;;;;;;;7.27;3.20;;;;;;;;;;5030620;28;20054;-61
2023/06/01 07:52:54;;;;;;;11.40;3.27;;;;;;;;;;5030845;28;20439;-61
2023/06/01 07:55:20;;;;;;;8.93;4.23;;;;;;;;;;5030923;28;20052;-61
2023/06/01 07:57:46;;;;;;;9.57;4.53;;;;;;;;;;5030997;28;20123;-61
2023/06/01 08:00:13;;;;;;;11.17;3.63;;;;;;;;;;5030711;28;20049;-61
2023/06/01 08:02:39;;;;;;;7.50;3.70;;;;;;;;;;5030305;28;20041;-61
2023/06/01 08:05:06;;;;;;;9.40;3.30;;;;;;;;;;5030883;28;20041;-61
2023/06/01 08:07:32;;;;;;;10.57;3.57;;;;;;;;;;5030993;28;20048;-61
2023/06/01 08:09:58;;;;;;;8.40;3.20;;;;;;;;;;5030505;28;20049;-61
2023/06/01 08:12:26;;;;;;;7.80;3.87;;;;;;;;;;5030649;28;20325;-61
2023/06/01 08:14:52;;;;;;;8.77;3.50;;;;;;;;;;5030094;28;20038;-61
2023/06/01 08:17:18;;;;;;;12.47;3.67;;;;;;;;;;5030618;28;20056;-61
2023/06/01 08:19:45;;;;;;;10.77;3.33;;;;;;;;;;5030310;28;20479;-61
2023/06/01 08:22:14;;;;;;;11.57;4.27;;;;;;;;;;5030252;28;20516;-61
2023/06/01 08:24:40;;;;;;;7.27;2.90;;;;;;;;;;5030462;28;20041;-61
2023/06/01 08:27:19;;;;;;;7.47;3.03;;;;;;;;;;5029890;28;20511;-61
2023/06/01 08:29:46;;;;;;;6.63;2.70;;;;;;;;;;5030243;28;20060;-61
2023/06/01 08:32:12;;;;;;;9.87;2.93;;;;;;;;;;5029956;28;20527;-61
2023/06/01 08:34:38;;;;;;;7.90;2.60;;;;;;;;;;5030032;28;20053;-61
2023/06/01 08:37:05;;;;;;;6.57;2.93;;;;;;;;;;5029870;28;20553;-61
2023/06/01 08:39:31;;;;;;;8.30;2.97;;;;;;;;;;5029950;28;20045;-61
2023/06/01 08:41:57;;;;;;;9.47;2.67;;;;;;;;;;5029977;28;20050;-61
2023/06/01 08:44:26;;;;;;;11.97;3.10;;;;;;;;;;5030088;28;20057;-61
2023/06/01 08:46:53;;;;;;;7.83;2.57;;;;;;;;;;5029718;28;20129;-61
2023/06/01 08:49:20;;;;;;;8.63;2.80;;;;;;;;;;5029398;28;20420;-61
2023/06/01 08:51:48;;;;;;;9.73;3.57;;;;;;;;;;5029920;28;20044;-61
2023/06/01 08:54:14;;;;;;;8.40;2.73;;;;;;;;;;5029724;28;20518;-61
2023/06/01 08:56:42;;;;;;;4.17;2.30;;;;;;;;;;5029786;28;20042;-61
2023/06/01 08:59:08;;;;;;;7.73;2.37;;;;;;;;;;5029086;28;20053;-61
2023/06/01 09:01:34;;;;;;;5.70;2.47;;;;;;;;;;5029366;28;20042;-61
2023/06/01 09:04:00;;;;;;;4.53;2.20;;;;;;;;;;5029528;28;20046;-61
2023/06/01 09:06:26;;;;;;;6.23;2.43;;;;;;;;;;5029785;28;20424;-61
2023/06/01 09:08:52;;;;;;;9.00;3.00;;;;;;;;;;5029699;28;20076;-61
2023/06/01 09:11:19;;;;;;;5.13;1.87;;;;;;;;;;5029352;28;20072;-62
2023/06/01 09:13:45;;;;;;;3.63;1.70;;;;;;;;;;5028888;28;20045;-61
2023/06/01 09:16:12;;;;;;;4.97;2.30;;;;;;;;;;5029609;28;20052;-61
2023/06/01 09:18:51;;;;;;;4.43;2.10;;;;;;;;;;5029345;28;20049;-61
2023/06/01 09:21:17;;;;;;;2.80;1.33;;;;;;;;;;5028922;28;20049;-61
2023/06/01 09:23:43;;;;;;;4.30;1.33;;;;;;;;;;5029329;28;20476;-61
2023/06/01 09:26:13;;;;;;;5.17;1.63;;;;;;;;;;5029360;28;20041;-61
2023/06/01 09:28:57;;;;;;;6.00;1.50;;;;;;;;;;5029065;28;20042;-61
2023/06/01 09:31:40;;;;;;;2.87;1.43;;;;;;;;;;5029046;28;20041;-61
2023/06/01 09:34:06;;;;;;;3.80;1.20;;;;;;;;;;5029155;28;20090;-61
2023/06/01 09:36:33;;;;;;;7.47;1.40;;;;;;;;;;5028301;28;20578;-61
2023/06/01 09:39:02;;;;;;;4.13;1.60;;;;;;;;;;5028876;28;20065;-61
2023/06/01 09:41:31;;;;;;;5.03;2.10;;;;;;;;;;5028668;28;20136;-61
2023/06/01 09:43:57;;;;;;;3.33;1.13;;;;;;;;;;5028086;28;20049;-61
2023/06/01 09:46:23;;;;;;;4.27;1.20;;;;;;;;;;5027855;28;20052;-61
2023/06/01 09:49:05;;;;;;;5.17;1.30;;;;;;;;;;5028172;28;20042;-62
2023/06/01 09:51:32;;;;;;;4.13;1.17;;;;;;;;;;5028210;28;20083;-61
2023/06/01 09:53:58;;;;;;;5.10;1.67;;;;;;;;;;5027942;28;20300;-61
2023/06/01 09:56:24;;;;;;;3.20;1.23;;;;;;;;;;5028496;28;20060;-61
2023/06/01 09:58:56;;;;;;;2.30;1.07;;;;;;;;;;5027882;28;20059;-61
2023/06/01 10:01:22;;;;;;;2.85;1.27;;;;;;;;;;5027589;28;20038;-62
2023/06/01 10:03:53;;;;;;;3.37;1.40;;;;;;;;;;5027218;28;20498;-61
2023/06/01 10:06:19;;;;;;;2.53;1.00;;;;;;;;;;5028039;28;20049;-62
2023/06/01 10:08:47;;;;;;;3.53;1.27;;;;;;;;;;5027717;28;20099;-62
2023/06/01 10:11:13;;;;;;;2.80;1.17;;;;;;;;;;5028044;28;20045;-62
2023/06/01 10:13:39;;;;;;;2.83;1.17;;;;;;;;;;5027573;28;20055;-61
2023/06/01 10:16:06;;;;;;;8.07;1.60;;;;;;;;;;5027869;28;20527;-61
2023/06/01 10:18:32;;;;;;;2.70;1.10;;;;;;;;;;5026782;28;20140;-61
2023/06/01 10:20:59;;;;;;;4.00;1.57;;;;;;;;;;5027377;28;20061;-62
2023/06/01 10:23:25;;;;;;;4.63;1.03;;;;;;;;;;5027287;28;20081;-61
2023/06/01 10:25:52;;;;;;;5.23;1.80;;;;;;;;;;5028193;28;20116;-61
2023/06/01 10:28:19;;;;;;;4.13;1.57;;;;;;;;;;5027640;28;20416;-61
2023/06/01 10:30:46;;;;;;;5.07;1.87;;;;;;;;;;5027646;28;20128;-62
2023/06/01 10:33:12;;;;;;;5.77;1.50;;;;;;;;;;5027335;28;20064;-62
2023/06/01 10:35:51;;;;;;;5.57;2.27;;;;;;;;;;5027321;28;20499;-61
2023/06/01 10:38:20;;;;;;;7.13;2.23;;;;;;;;;;5027319;28;20056;-61
2023/06/01 10:40:46;;;;;;;6.33;1.70;;;;;;;;;;5027694;28;20455;-61
2023/06/01 10:43:31;;;;;;;7.33;2.50;;;;;;;;;;5028001;28;20050;-61
2023/06/01 10:45:57;;;;;;;6.90;2.80;;;;;;;;;;5026852;28;20124;-61
2023/06/01 10:48:43;;;;;;;7.67;2.60;;;;;;;;;;5027376;28;20037;-61
2023/06/01 10:51:23;;;;;;;9.03;2.80;;;;;;;;;;5027785;28;20051;-61
2023/06/01 10:53:49;;;;;;;7.60;2.50;;;;;;;;;;5027013;28;20046;-61
2023/06/01 10:56:23;;;;;;;6.10;2.67;;;;;;;;;;5027635;28;20199;-61
2023/06/01 10:59:08;;;;;;;7.60;2.63;;;;;;;;;;5027574;28;20053;-61
2023/06/01 11:01:44;;;;;;;6.73;2.93;;;;;;;;;;5027598;28;20045;-61
2023/06/01 11:04:10;;;;;;;5.97;2.20;;;;;;;;;;5027111;28;20041;-61
2023/06/01 11:06:39;;;;;;;6.23;3.03;;;;;;;;;;5027645;28;20062;-61
2023/06/01 11:09:06;;;;;;;5.90;2.47;;;;;;;;;;5028383;28;20400;-61
2023/06/01 11:11:55;;;;;;;4.33;1.97;;;;;;;;;;5039401;28;20080;-61
2023/06/01 11:14:23;;;;;;;8.00;1.90;;;;;;;;;;5039258;28;20111;-61
2023/06/01 11:16:52;;;;;;;4.90;2.13;;;;;;;;;;5039687;28;20519;-61
2023/06/01 11:19:26;;;;;;;6.20;2.67;;;;;;;;;;5045134;28;20684;-62
2023/06/01 11:22:01;;;;;;;4.87;2.03;;;;;;;;;;5046442;28;20553;-61
2023/06/01 11:24:33;;;;;;;10.07;3.43;;;;;;;;;;5050559;28;20041;-61
2023/06/01 11:27:01;;;;;;;7.83;2.20;;;;;;;;;;5048410;28;20685;-61
2023/06/01 11:29:28;;;;;;;9.90;2.90;;;;;;;;;;5051174;28;20053;-61
2023/06/01 11:31:55;;;;;;;8.07;2.23;;;;;;;;;;5043639;28;20518;-61
2023/06/01 11:34:31;;;;;;;6.97;2.67;;;;;;;;;;5041079;28;20106;-61
2023/06/01 11:36:58;;;;;;;8.83;2.97;;;;;;;;;;5050086;28;20044;-61
2023/06/01 11:39:28;;;;;;;8.87;2.80;;;;;;;;;;5050373;28;20526;-62
2023/06/01 11:42:13;;;;;;;8.23;2.53;;;;;;;;;;5050740;28;20056;-61
2023/06/01 11:44:44;;;;;;;8.50;2.30;;;;;;;;;;5044612;28;20534;-61
2023/06/01 11:47:11;;;;;;;6.83;2.00;;;;;;;;;;5050135;28;20249;-62
2023/06/01 11:49:41;;;;;;;9.03;2.87;;;;;;;;;;5049573;28;20044;-61
2023/06/01 11:52:09;;;;;;;8.37;2.67;;;;;;;;;;5050611;28;20045;-62
2023/06/01 11:54:36;;;;;;;6.37;2.40;;;;;;;;;;5050493;28;20140;-61
2023/06/01 11:57:02;;;;;;;12.73;2.93;;;;;;;;;;5050083;28;20049;-62
2023/06/01 11:59:37;;;;;;;8.83;2.30;;;;;;;;;;5050074;28;20539;-62
2023/06/01 12:02:03;;;;;;;11.13;3.30;;;;;;;;;;5050366;28;20056;-62
2023/06/01 12:04:29;;;;;;;9.70;2.33;;;;;;;;;;5050644;28;20174;-62
2023/06/01 12:07:07;;;;;;;6.97;2.50;;;;;;;;;;5049673;28;20072;-62
2023/06/01 12:09:35;;;;;;;8.53;2.43;;;;;;;;;;5042289;28;20574;-62
2023/06/01 12:12:01;;;;;;;7.13;2.27;;;;;;;;;;5040437;28;20106;-61
2023/06/01 12:14:28;;;;;;;7.30;2.43;;;;;;;;;;5049104;28;20075;-62
2023/06/01 12:16:56;;;;;;;9.03;2.13;;;;;;;;;;5050010;28;20147;-62
2023/06/01 12:19:22;;;;;;;7.67;2.53;;;;;;;;;;5048737;28;20394;-61
2023/06/01 12:21:50;;;;;;;5.43;2.07;;;;;;;;;;5049842;28;20060;-61
2023/06/01 12:24:16;;;;;;;10.40;2.37;;;;;;;;;;5049749;28;20115;-61
2023/06/01 12:26:43;;;;;;;9.17;3.33;;;;;;;;;;5049552;28;20434;-61
2023/06/01 12:29:09;;;;;;;6.47;2.67;;;;;;;;;;5050282;28;20053;-61
2023/06/01 12:31:36;;;;;;;8.33;2.70;;;;;;;;;;5047694;28;20053;-61
2023/06/01 12:34:02;;;;;;;10.87;3.27;;;;;;;;;;5034051;28;20045;-62
2023/06/01 12:36:32;;;;;;;6.63;2.20;;;;;;;;;;5050008;28;20053;-62
2023/06/01 12:38:59;;;;;;;8.13;2.80;;;;;;;;;;5049360;28;20049;-62
2023/06/01 12:41:26;;;;;;;7.53;1.80;;;;;;;;;;5049709;28;20052;-62
2023/06/01 12:43:53;;;;;;;8.27;2.47;;;;;;;;;;5050731;28;20049;-62
2023/06/01 12:46:23;;;;;;;8.20;2.30;;;;;;;;;;5048174;28;20056;-61
2023/06/01 12:48:50;;;;;;;5.87;2.30;;;;;;;;;;5044385;28;20041;-62
2023/06/01 12:51:16;;;;;;;6.00;2.07;;;;;;;;;;5050030;28;20048;-61
2023/06/01 12:53:42;;;;;;;8.77;2.60;;;;;;;;;;5041192;28;20045;-61
2023/06/01 12:56:09;;;;;;;8.40;3.00;;;;;;;;;;5050879;28;20041;-61
2023/06/01 12:58:35;;;;;;;5.47;1.83;;;;;;;;;;5048248;28;20139;-62
2023/06/01 13:01:02;;;;;;;7.93;2.23;;;;;;;;;;5029795;28;20041;-62
2023/06/01 13:03:29;;;;;;;6.93;2.37;;;;;;;;;;5035660;28;20087;-61
2023/06/01 13:05:55;;;;;;;5.70;2.17;;;;;;;;;;5049481;28;20051;-62
2023/06/01 13:08:22;;;;;;;8.93;2.50;;;;;;;;;;5039355;28;20041;-62
2023/06/01 13:10:48;;;;;;;5.73;2.43;;;;;;;;;;5029451;28;20045;-61
2023/06/01 13:13:15;;;;;;;6.50;2.43;;;;;;;;;;5029809;28;20077;-61
2023/06/01 13:15:44;;;;;;;6.30;2.37;;;;;;;;;;5029468;28;21122;-62
2023/06/01 13:18:11;;;;;;;6.77;2.60;;;;;;;;;;5029553;28;20042;-62
2023/06/01 13:20:39;;;;;;;5.50;2.27;;;;;;;;;;5038774;28;20046;-62
2023/06/01 13:23:05;;;;;;;8.23;3.03;;;;;;;;;;5029520;28;20057;-62
2023/06/01 13:25:32;;;;;;;7.70;2.20;;;;;;;;;;5028974;28;20423;-61
2023/06/01 13:27:58;;;;;;;7.07;2.50;;;;;;;;;;5029243;28;20068;-61
2023/06/01 13:30:24;;;;;;;5.47;2.40;;;;;;;;;;5059037;28;20070;-62
2023/06/01 13:32:51;;;;;;;7.03;2.57;;;;;;;;;;5067910;28;20060;-62
2023/06/01 13:35:18;;;;;;;6.73;2.67;;;;;;;;;;5064132;28;20416;-61
2023/06/01 13:37:45;;;;;;;7.23;2.57;;;;;;;;;;5028997;28;20042;-62
2023/06/01 13:40:11;;;;;;;11.20;2.80;;;;;;;;;;5028760;28;20053;-62
2023/06/01 13:42:37;;;;;;;6.00;2.53;;;;;;;;;;5062765;28;20455;-61
2023/06/01 13:45:04;;;;;;;5.47;2.00;;;;;;;;;;5068518;28;20040;-62
2023/06/01 13:47:30;;;;;;;5.63;2.17;;;;;;;;;;5068122;28;20040;-61
2023/06/01 13:49:56;;;;;;;5.90;2.37;;;;;;;;;;5068705;28;20133;-62
2023/06/01 13:52:25;;;;;;;8.57;2.90;;;;;;;;;;5062628;28;20110;-61
2023/06/01 13:54:51;;;;;;;5.97;2.40;;;;;;;;;;5045777;28;20044;-62
2023/06/01 13:57:17;;;;;;;6.77;2.33;;;;;;;;;;5057076;28;20040;-61
2023/06/01 13:59:43;;;;;;;4.67;1.97;;;;;;;;;;5048448;28;20183;-62
2023/06/01 14:02:11;;;;;;;7.83;2.10;;;;;;;;;;5049475;28;20505;-62
2023/06/01 14:04:37;;;;;;;7.57;2.40;;;;;;;;;;5048425;28;20082;-62
2023/06/01 14:07:03;;;;;;;7.97;2.10;;;;;;;;;;5048599;28;20088;-62
2023/06/01 14:09:29;;;;;;;7.50;2.47;;;;;;;;;;5044895;28;20050;-62
2023/06/01 14:11:55;;;;;;;5.83;2.20;;;;;;;;;;5028568;28;20049;-62
2023/06/01 14:14:21;;;;;;;6.57;2.27;;;;;;;;;;5056214;28;20079;-62
2023/06/01 14:16:47;;;;;;;8.07;2.60;;;;;;;;;;5068011;28;20110;-61
2023/06/01 14:19:13;;;;;;;9.50;2.60;;;;;;;;;;5068632;28;20135;-62
2023/06/01 14:21:39;;;;;;;6.23;2.50;;;;;;;;;;5066583;28;20585;-62
2023/06/01 14:24:06;;;;;;;7.27;2.37;;;;;;;;;;5039901;28;20080;-62
2023/06/01 14:26:31;;;;;;;13.23;2.57;;;;;;;;;;5040217;28;20042;-62
2023/06/01 14:28:57;;;;;;;15.67;3.00;;;;;;;;;;5031045;28;20065;-62
2023/06/01 14:31:24;;;;;;;7.83;1.97;;;;;;;;;;5047870;28;20427;-61
2023/06/01 14:33:49;;;;;;;8.83;2.30;;;;;;;;;;5032573;28;20516;-62
2023/06/01 14:36:16;;;;;;;9.03;2.70;;;;;;;;;;5042153;28;20048;-62
2023/06/01 14:38:42;;;;;;;7.67;2.37;;;;;;;;;;5047432;28;20063;-62